createdAt,value
2022-08-17T00:00:10.223Z,57.02
2022-08-17T00:03:17.158Z,56.67
2022-08-17T00:05:52.315Z,57.10
2022-08-17T00:08:24.339Z,57.40
2022-08-17T00:10:53.953Z,57.62
2022-08-17T00:13:43.060Z,58.22
2022-08-17T00:16:51.001Z,58.31
2022-08-17T00:19:26.310Z,58.75
2022-08-17T00:22:29.766Z,58.21
2022-08-17T00:24:45.037Z,58.71
2022-08-17T00:27:12.010Z,58.95
2022-08-17T00:29:38.972Z,59.25
2022-08-17T00:33:15.012Z,59.98
2022-08-17T00:34:53.665Z,60.79
2022-08-17T00:37:21.046Z,60.31
2022-08-17T00:39:48.276Z,60.81
2022-08-17T00:42:18.332Z,60.93
2022-08-17T00:44:46.441Z,60.85
2022-08-17T00:47:13.605Z,60.95
2022-08-17T00:49:40.677Z,61.78
2022-08-17T00:52:16.716Z,61.84
2022-08-17T00:54:47.575Z,62.23
2022-08-17T00:57:31.735Z,62.20
2022-08-17T01:00:26.930Z,62.21
2022-08-17T01:03:00.829Z,62.00
2022-08-17T01:05:32.742Z,62.19
2022-08-17T01:08:02.667Z,61.87
2022-08-17T01:10:58.481Z,62.79
2022-08-17T01:13:30.374Z,62.95
2022-08-17T01:16:05.263Z,62.96
2022-08-17T01:18:33.887Z,63.23
2022-08-17T01:21:09.284Z,63.52
2022-08-17T01:23:37.204Z,63.68
2022-08-17T01:26:06.309Z,63.29
2022-08-17T01:28:53.699Z,63.40
2022-08-17T01:31:25.435Z,63.38
2022-08-17T01:33:53.356Z,63.48
2022-08-17T01:36:21.019Z,63.68
2022-08-17T01:38:48.552Z,64.00
2022-08-17T01:41:16.856Z,63.83
2022-08-17T01:43:51.843Z,63.95
2022-08-17T01:46:27.472Z,64.46
2022-08-17T01:48:57.624Z,64.87
2022-08-17T01:51:32.161Z,64.66
2022-08-17T01:54:05.300Z,65.12
2022-08-17T01:56:35.709Z,64.69
2022-08-17T01:59:03.696Z,65.25
2022-08-17T02:01:34.617Z,65.50
2022-08-17T02:04:02.320Z,65.43
2022-08-17T02:06:53.745Z,65.85
2022-08-17T02:09:26.329Z,65.59
2022-08-17T02:12:37.383Z,65.88
2022-08-17T02:14:47.415Z,65.90
2022-08-17T02:17:14.469Z,65.60
2022-08-17T02:19:41.894Z,65.99
2022-08-17T02:22:09.412Z,66.02
2022-08-17T02:24:59.901Z,65.93
2022-08-17T02:27:25.418Z,66.06
2022-08-17T02:29:52.535Z,66.32
2022-08-17T02:32:28.032Z,66.54
2022-08-17T02:34:59.935Z,66.27
2022-08-17T02:37:30.130Z,66.58
2022-08-17T02:39:58.751Z,66.20
2022-08-17T02:42:52.609Z,66.42
2022-08-17T02:45:24.420Z,66.73
2022-08-17T02:47:52.875Z,66.43
2022-08-17T02:50:24.323Z,65.93
2022-08-17T02:53:01.907Z,66.32
2022-08-17T02:55:38.362Z,66.40
2022-08-17T02:58:05.462Z,66.66
2022-08-17T03:00:41.004Z,66.80
2022-08-17T03:03:10.867Z,66.34
2022-08-17T03:05:38.771Z,67.13
2022-08-17T03:08:12.975Z,67.41
2022-08-17T03:10:41.646Z,67.13
2022-08-17T03:13:08.850Z,67.27
2022-08-17T03:15:36.630Z,67.84
2022-08-17T03:18:07.935Z,67.46
2022-08-17T03:20:46.672Z,67.56
2022-08-17T03:23:13.696Z,67.31
2022-08-17T03:25:44.168Z,67.21
2022-08-17T03:28:14.035Z,67.58
2022-08-17T03:30:42.718Z,67.24
2022-08-17T03:33:10.292Z,67.77
2022-08-17T03:35:40.683Z,67.44
2022-08-17T03:38:11.874Z,67.72
2022-08-17T03:40:58.957Z,67.76
2022-08-17T03:43:32.747Z,67.60
2022-08-17T03:46:28.865Z,67.99
2022-08-17T03:49:26.530Z,67.57
2022-08-17T03:52:15.428Z,67.85
2022-08-17T03:55:10.264Z,67.51
2022-08-17T03:57:37.593Z,67.74
2022-08-17T04:00:05.573Z,68.01
2022-08-17T04:02:39.084Z,67.83
2022-08-17T04:05:06.504Z,67.48
2022-08-17T04:07:33.543Z,68.05
2022-08-17T04:10:00.931Z,68.40
2022-08-17T04:12:31.335Z,68.09
2022-08-17T04:14:59.415Z,68.26
2022-08-17T04:17:29.305Z,68.37
2022-08-17T04:19:57.767Z,68.50
2022-08-17T04:22:32.917Z,68.29
2022-08-17T04:25:06.682Z,68.59
2022-08-17T04:27:34.434Z,68.74
2022-08-17T04:30:02.832Z,68.75
2022-08-17T04:33:03.493Z,68.44
2022-08-17T04:35:24.665Z,68.57
2022-08-17T04:37:52.662Z,68.44
2022-08-17T04:40:40.691Z,68.27
2022-08-17T04:43:16.462Z,68.72
2022-08-17T04:45:55.544Z,68.63
2022-08-17T04:48:37.573Z,68.80
2022-08-17T04:51:14.587Z,68.67
2022-08-17T04:53:53.954Z,68.72
2022-08-17T04:56:25.912Z,69.05
2022-08-17T04:58:58.496Z,69.01
2022-08-17T05:01:28.508Z,69.34
2022-08-17T05:03:59.174Z,69.61
2022-08-17T05:06:28.440Z,69.88
2022-08-17T05:08:57.686Z,69.55
2022-08-17T05:11:27.178Z,70.36
2022-08-17T05:13:56.799Z,70.05
2022-08-17T05:16:26.186Z,70.39
2022-08-17T05:18:53.647Z,69.94
2022-08-17T05:21:23.028Z,70.20
2022-08-17T05:23:55.002Z,70.36
2022-08-17T05:26:26.941Z,70.29
2022-08-17T05:29:00.367Z,70.84
2022-08-17T05:31:30.841Z,70.90
2022-08-17T05:33:58.246Z,70.47
2022-08-17T05:36:43.543Z,70.95
2022-08-17T05:39:16.867Z,70.91
2022-08-17T05:41:48.591Z,70.57
2022-08-17T05:44:17.289Z,70.79
2022-08-17T05:46:50.100Z,71.14
2022-08-17T05:49:27.554Z,70.57
2022-08-17T05:52:03.688Z,70.48
2022-08-17T05:55:01.705Z,70.30
2022-08-17T05:57:47.562Z,70.27
2022-08-17T06:00:30.606Z,70.42
2022-08-17T06:03:40.358Z,69.55
2022-08-17T06:06:38.209Z,69.49
2022-08-17T06:09:51.542Z,68.66
2022-08-17T06:12:37.474Z,68.83
2022-08-17T06:15:24.772Z,68.71
2022-08-17T06:18:02.181Z,69.08
2022-08-17T06:20:40.913Z,68.48
2022-08-17T06:23:18.296Z,69.06
2022-08-17T06:25:52.881Z,68.84
2022-08-17T06:28:30.556Z,68.19
2022-08-17T06:31:06.915Z,68.11
2022-08-17T06:33:38.109Z,68.10
2022-08-17T06:36:29.277Z,68.45
2022-08-17T06:39:39.735Z,67.64
2022-08-17T06:43:02.928Z,68.38
2022-08-17T06:45:20.560Z,68.31
2022-08-17T06:47:56.498Z,68.58
2022-08-17T06:50:54.955Z,68.73
2022-08-17T06:53:31.948Z,68.43
2022-08-17T06:56:06.490Z,69.33
2022-08-17T06:58:36.688Z,69.72
2022-08-17T07:01:23.172Z,69.61
2022-08-17T07:04:11.969Z,69.40
2022-08-17T07:06:58.409Z,69.97
2022-08-17T07:09:36.507Z,69.58
2022-08-17T07:12:22.142Z,69.19
2022-08-17T07:14:57.783Z,70.14
2022-08-17T07:17:48.009Z,70.03
2022-08-17T07:20:21.379Z,70.15
2022-08-17T07:22:59.871Z,70.57
2022-08-17T07:25:30.482Z,70.15
2022-08-17T07:28:02.598Z,69.92
2022-08-17T07:30:47.509Z,70.50
2022-08-17T07:33:30.147Z,70.64
2022-08-17T07:35:58.220Z,70.31
2022-08-17T07:38:35.546Z,70.34
2022-08-17T07:41:08.878Z,70.38
2022-08-17T07:43:42.052Z,69.77
2022-08-17T07:46:51.996Z,69.65
2022-08-17T07:49:31.155Z,70.16
2022-08-17T07:52:48.211Z,70.50
2022-08-17T07:54:50.919Z,69.65
2022-08-17T07:57:25.411Z,69.74
2022-08-17T08:00:02.200Z,70.31
2022-08-17T08:02:45.273Z,70.11
2022-08-17T08:05:48.845Z,69.94
2022-08-17T08:08:43.230Z,69.87
2022-08-17T08:11:15.767Z,69.99
2022-08-17T08:13:45.783Z,70.17
2022-08-17T08:16:24.719Z,69.60
2022-08-17T08:19:02.107Z,69.93
2022-08-17T08:21:52.134Z,69.81
2022-08-17T08:24:30.116Z,69.39
2022-08-17T08:27:29.807Z,68.87
2022-08-17T08:30:22.511Z,68.83
2022-08-17T08:33:20.192Z,69.40
2022-08-17T08:36:14.304Z,69.07
2022-08-17T08:39:09.934Z,68.99
2022-08-17T08:42:09.740Z,69.07
2022-08-17T08:45:07.551Z,68.63
2022-08-17T08:48:46.172Z,67.95
2022-08-17T08:51:08.576Z,68.06
2022-08-17T08:54:09.252Z,68.07
2022-08-17T08:57:19.789Z,67.58
2022-08-17T09:00:15.717Z,67.54
2022-08-17T09:03:36.727Z,66.81
2022-08-17T09:06:33.246Z,66.79
2022-08-17T09:09:27.942Z,66.61
2022-08-17T09:12:14.015Z,66.82
2022-08-17T09:14:57.689Z,67.00
2022-08-17T09:18:59.791Z,66.90
2022-08-17T09:21:14.863Z,66.70
2022-08-17T09:24:04.933Z,66.84
2022-08-17T09:26:49.311Z,67.56
2022-08-17T09:29:18.243Z,67.12
2022-08-17T09:31:58.687Z,66.91
2022-08-17T09:34:43.645Z,67.15
2022-08-17T09:38:02.136Z,66.36
2022-08-17T09:40:43.730Z,66.61
2022-08-17T09:43:27.273Z,66.51
2022-08-17T09:46:16.721Z,66.28
2022-08-17T09:49:15.201Z,66.10
2022-08-17T09:51:49.449Z,65.66
2022-08-17T09:54:39.206Z,65.56
2022-08-17T09:57:39.849Z,64.71
2022-08-17T10:00:27.488Z,65.15
2022-08-17T10:03:10.334Z,65.16
2022-08-17T10:05:56.894Z,65.31
2022-08-17T10:08:52.355Z,64.96
2022-08-17T10:11:52.846Z,64.95
2022-08-17T10:15:08.230Z,64.73
2022-08-17T10:18:13.856Z,64.19
2022-08-17T10:21:26.172Z,64.48
2022-08-17T10:24:26.708Z,63.64
2022-08-17T10:26:58.164Z,63.66
2022-08-17T10:29:48.614Z,63.32
2022-08-17T10:32:26.036Z,62.46
2022-08-17T10:35:03.882Z,62.24
2022-08-17T10:37:55.555Z,61.52
2022-08-17T10:40:36.447Z,61.45
2022-08-17T10:43:23.220Z,61.87
2022-08-17T10:46:31.132Z,62.67
2022-08-17T10:49:17.116Z,62.27
2022-08-17T10:51:54.537Z,61.72
2022-08-17T10:54:24.379Z,61.55
2022-08-17T10:56:57.293Z,60.84
2022-08-17T10:59:36.292Z,60.92
2022-08-17T11:02:13.178Z,61.36
2022-08-17T11:04:55.619Z,60.06
2022-08-17T11:07:43.942Z,59.35
2022-08-17T11:10:42.938Z,59.98
2022-08-17T11:13:39.975Z,60.25
2022-08-17T11:16:33.185Z,59.19
2022-08-17T11:19:12.267Z,59.40
2022-08-17T11:22:24.451Z,58.93
2022-08-17T11:24:54.139Z,58.55
2022-08-17T11:27:32.112Z,58.58
2022-08-17T11:30:07.335Z,59.17
2022-08-17T11:32:54.396Z,58.37
2022-08-17T11:35:21.847Z,58.79
2022-08-17T11:38:16.915Z,58.50
2022-08-17T11:41:27.481Z,58.29
2022-08-17T11:44:37.830Z,57.60
2022-08-17T11:47:39.399Z,58.19
2022-08-17T11:50:56.770Z,58.68
2022-08-17T11:53:39.288Z,57.01
2022-08-17T11:56:44.024Z,57.41
2022-08-17T11:59:36.642Z,57.82
2022-08-17T12:02:19.997Z,57.22
2022-08-17T12:05:04.958Z,56.39
2022-08-17T12:08:05.715Z,55.96
2022-08-17T12:10:39.878Z,55.50
2022-08-17T12:13:14.928Z,55.20
2022-08-17T12:15:49.741Z,55.48
2022-08-17T12:18:28.164Z,54.99
2022-08-17T12:21:26.395Z,54.56
2022-08-17T12:24:31.462Z,54.39
2022-08-17T12:27:02.569Z,53.20
2022-08-17T12:29:35.718Z,53.60
2022-08-17T12:32:14.501Z,53.84
2022-08-17T12:34:44.578Z,54.26
2022-08-17T12:37:26.255Z,54.46
2022-08-17T12:40:22.809Z,54.67
2022-08-17T12:42:59.121Z,55.07
2022-08-17T12:45:31.913Z,54.88
2022-08-17T12:48:13.246Z,54.06
2022-08-17T12:50:45.813Z,53.29
2022-08-17T12:53:21.011Z,52.57
2022-08-17T12:55:50.748Z,53.40
2022-08-17T12:58:29.664Z,53.56
2022-08-17T13:01:09.229Z,53.32
2022-08-17T13:03:41.949Z,53.61
2022-08-17T13:06:14.367Z,53.56
2022-08-17T13:08:48.298Z,53.17
2022-08-17T13:11:16.579Z,52.90
2022-08-17T13:13:54.811Z,53.03
2022-08-17T13:16:25.485Z,53.12
2022-08-17T13:19:15.114Z,53.62
2022-08-17T13:21:56.249Z,52.79
2022-08-17T13:24:38.143Z,52.92
2022-08-17T13:27:12.591Z,53.35
2022-08-17T13:29:53.645Z,54.11
2022-08-17T13:32:33.487Z,53.86
2022-08-17T13:35:13.811Z,53.91
2022-08-17T13:37:59.020Z,53.80
2022-08-17T13:40:49.994Z,53.33
2022-08-17T13:43:45.296Z,54.20
2022-08-17T13:46:22.848Z,54.18
2022-08-17T13:49:04.217Z,53.44
2022-08-17T13:51:36.673Z,53.49
2022-08-17T13:54:07.122Z,53.83
2022-08-17T13:56:51.662Z,54.42
2022-08-17T13:59:53.572Z,53.83
2022-08-17T14:02:21.819Z,53.80
2022-08-17T14:04:49.310Z,54.11
2022-08-17T14:07:18.187Z,53.64
2022-08-17T14:09:59.534Z,53.66
2022-08-17T14:12:29.917Z,54.26
2022-08-17T14:14:58.942Z,54.54
2022-08-17T14:17:28.979Z,54.62
2022-08-17T14:19:56.362Z,54.96
2022-08-17T14:22:30.703Z,55.34
2022-08-17T14:25:01.645Z,56.08
2022-08-17T14:27:33.489Z,56.47
2022-08-17T14:30:10.405Z,57.62
2022-08-17T14:32:41.557Z,57.27
2022-08-17T14:35:15.991Z,57.86
2022-08-17T14:37:45.666Z,58.40
2022-08-17T14:40:17.243Z,57.50
2022-08-17T14:42:45.920Z,57.72
2022-08-17T14:45:30.270Z,57.85
2022-08-17T14:48:05.712Z,58.58
2022-08-17T14:50:35.359Z,58.96
2022-08-17T14:53:06.049Z,59.38
2022-08-17T14:55:33.724Z,58.84
2022-08-17T14:58:00.814Z,59.31
2022-08-17T15:00:28.620Z,58.97
2022-08-17T15:02:58.854Z,58.38
2022-08-17T15:05:34.000Z,58.60
2022-08-17T15:08:03.268Z,57.72
2022-08-17T15:10:31.391Z,57.68
2022-08-17T15:12:59.371Z,58.20
2022-08-17T15:15:27.184Z,58.62
2022-08-17T15:17:55.089Z,58.84
2022-08-17T15:20:28.011Z,58.98
2022-08-17T15:22:57.457Z,58.49
2022-08-17T15:25:31.898Z,58.95
2022-08-17T15:28:00.532Z,58.85
2022-08-17T15:30:28.097Z,58.76
2022-08-17T15:33:00.668Z,58.48
2022-08-17T15:35:32.305Z,59.09
2022-08-17T15:38:09.895Z,59.18
2022-08-17T15:40:45.451Z,58.72
2022-08-17T15:43:17.297Z,58.40
2022-08-17T15:45:59.793Z,58.55
2022-08-17T15:48:41.426Z,58.54
2022-08-17T15:51:26.153Z,58.03
2022-08-17T15:54:18.846Z,57.82
2022-08-17T15:56:49.444Z,58.00
2022-08-17T15:59:16.395Z,58.53
2022-08-17T16:03:13.738Z,57.81
2022-08-17T16:04:31.802Z,58.25
2022-08-17T16:07:00.238Z,57.98
2022-08-17T16:09:28.084Z,57.91
2022-08-17T16:11:56.070Z,58.34
2022-08-17T16:14:33.520Z,57.79
2022-08-17T16:17:04.430Z,57.99
2022-08-17T16:19:33.469Z,57.82
2022-08-17T16:22:00.852Z,57.65
2022-08-17T16:24:28.068Z,57.89
2022-08-17T16:26:55.550Z,57.97
2022-08-17T16:29:23.611Z,58.64
2022-08-17T16:31:51.270Z,59.36
2022-08-17T16:34:19.054Z,60.24
2022-08-17T16:36:54.675Z,61.19
2022-08-17T16:39:29.253Z,61.93
2022-08-17T16:41:57.615Z,63.24
2022-08-17T16:44:33.160Z,64.29
2022-08-17T16:47:01.347Z,65.27
2022-08-17T16:49:36.832Z,65.21
2022-08-17T16:52:10.100Z,65.22
2022-08-17T16:54:52.450Z,66.20
2022-08-17T16:57:37.113Z,66.33
2022-08-17T17:00:29.028Z,66.60
2022-08-17T17:02:56.597Z,66.25
2022-08-17T17:06:09.378Z,66.47
2022-08-17T17:08:49.387Z,66.92
2022-08-17T17:11:27.859Z,67.24
2022-08-17T17:14:02.250Z,67.05
2022-08-17T17:16:32.084Z,67.93
2022-08-17T17:19:34.211Z,68.17
2022-08-17T17:22:15.272Z,68.60
2022-08-17T17:25:11.545Z,68.38
2022-08-17T17:27:47.582Z,68.75
2022-08-17T17:30:37.036Z,69.25
2022-08-17T17:33:10.460Z,69.13
2022-08-17T17:35:43.753Z,69.96
2022-08-17T17:38:23.674Z,70.28
2022-08-17T17:41:04.529Z,70.04
2022-08-17T17:43:39.606Z,70.56
2022-08-17T17:46:29.117Z,70.91
2022-08-17T17:48:58.334Z,71.18
2022-08-17T17:52:10.834Z,70.89
2022-08-17T17:55:05.304Z,71.14
2022-08-17T17:58:09.361Z,71.54
2022-08-17T18:00:42.166Z,71.27
2022-08-17T18:03:40.165Z,71.54
2022-08-17T18:07:13.265Z,71.46
2022-08-17T18:09:51.590Z,71.41
2022-08-17T18:12:38.343Z,71.93
2022-08-17T18:15:25.785Z,71.33
2022-08-17T18:18:16.004Z,71.91
2022-08-17T18:20:55.843Z,71.87
2022-08-17T18:23:27.976Z,72.18
2022-08-17T18:25:58.574Z,72.06
2022-08-17T18:28:34.590Z,72.30
2022-08-17T18:31:21.940Z,71.92
2022-08-17T18:33:54.303Z,72.24
2022-08-17T18:36:36.398Z,72.38
2022-08-17T18:39:27.882Z,72.23
2022-08-17T18:41:58.741Z,72.99
2022-08-17T18:44:42.532Z,73.01
2022-08-17T18:47:20.160Z,72.72
2022-08-17T18:49:57.994Z,73.04
2022-08-17T18:52:31.174Z,73.10
2022-08-17T18:55:13.800Z,72.74
2022-08-17T18:57:56.221Z,72.53
2022-08-17T19:00:40.468Z,72.76
2022-08-17T19:03:16.605Z,72.56
2022-08-17T19:05:54.538Z,73.57
2022-08-17T19:08:35.117Z,73.44
2022-08-17T19:11:28.254Z,73.11
2022-08-17T19:14:04.983Z,73.59
2022-08-17T19:17:01.069Z,73.52
2022-08-17T19:19:54.626Z,73.66
2022-08-17T19:22:43.772Z,73.39
2022-08-17T19:25:23.119Z,73.41
2022-08-17T19:28:21.844Z,73.33
2022-08-17T19:30:56.217Z,73.63
2022-08-17T19:33:24.230Z,73.96
2022-08-17T19:36:07.705Z,74.29
2022-08-17T19:39:22.625Z,73.61
2022-08-17T19:42:13.557Z,73.61
2022-08-17T19:44:56.383Z,73.74
2022-08-17T19:47:58.586Z,73.50
2022-08-17T19:50:42.519Z,73.26
2022-08-17T19:54:04.765Z,74.09
2022-08-17T19:56:55.813Z,74.40
2022-08-17T19:59:59.201Z,74.12
2022-08-17T20:02:42.475Z,74.65
2022-08-17T20:06:11.052Z,74.82
2022-08-17T20:08:49.155Z,74.49
2022-08-17T20:11:34.008Z,74.31
2022-08-17T20:14:13.489Z,74.88
2022-08-17T20:16:40.619Z,74.69
2022-08-17T20:19:38.837Z,74.74
2022-08-17T20:22:28.352Z,74.95
2022-08-17T20:25:11.548Z,74.92
2022-08-17T20:28:05.624Z,75.17
2022-08-17T20:30:42.613Z,75.43
2022-08-17T20:33:32.858Z,75.72
2022-08-17T20:36:11.346Z,75.13
2022-08-17T20:38:42.038Z,75.81
2022-08-17T20:41:24.667Z,75.47
2022-08-17T20:43:58.709Z,75.44
2022-08-17T20:46:28.513Z,75.61
2022-08-17T20:49:18.498Z,75.97
2022-08-17T20:52:09.772Z,76.49
2022-08-17T20:54:57.380Z,75.64
2022-08-17T20:57:33.568Z,75.88
2022-08-17T21:00:33.812Z,75.64
2022-08-17T21:03:22.526Z,75.69
2022-08-17T21:06:00.217Z,75.93
2022-08-17T21:08:35.805Z,75.95
2022-08-17T21:12:03.876Z,75.39
2022-08-17T21:14:58.712Z,75.84
2022-08-17T21:17:43.839Z,75.22
2022-08-17T21:20:52.322Z,74.44
2022-08-17T21:23:38.268Z,73.78
2022-08-17T21:26:30.731Z,73.64
2022-08-17T21:29:31.779Z,73.16
2022-08-17T21:31:59.568Z,72.63
2022-08-17T21:34:33.006Z,72.62
2022-08-17T21:37:23.639Z,72.37
2022-08-17T21:40:19.310Z,73.10
2022-08-17T21:42:53.902Z,71.97
2022-08-17T21:45:32.500Z,71.79
2022-08-17T21:48:16.185Z,72.11
2022-08-17T21:50:57.563Z,72.04
2022-08-17T21:53:37.426Z,72.09
2022-08-17T21:56:06.448Z,71.69
2022-08-17T21:58:39.983Z,71.68
2022-08-17T22:01:39.756Z,71.94
2022-08-17T22:04:11.516Z,71.32
2022-08-17T22:06:52.716Z,71.19
2022-08-17T22:09:48.649Z,71.74
2022-08-17T22:12:24.286Z,71.95
2022-08-17T22:15:04.676Z,71.67
2022-08-17T22:17:41.246Z,71.62
2022-08-17T22:20:16.333Z,71.69
2022-08-17T22:23:08.340Z,71.53
2022-08-17T22:25:40.948Z,72.16
2022-08-17T22:28:11.977Z,72.36
2022-08-17T22:30:44.133Z,72.37
2022-08-17T22:33:33.338Z,72.80
2022-08-17T22:36:42.111Z,72.66
2022-08-17T22:39:09.009Z,72.97
2022-08-17T22:41:52.552Z,73.50
2022-08-17T22:44:19.561Z,73.42
2022-08-17T22:47:11.340Z,72.88
2022-08-17T22:49:53.931Z,73.42
2022-08-17T22:53:00.624Z,72.94
2022-08-17T22:55:52.466Z,73.47
2022-08-17T22:58:42.648Z,73.67
2022-08-17T23:01:26.324Z,73.90
2022-08-17T23:03:58.079Z,73.60
2022-08-17T23:06:25.437Z,73.77
2022-08-17T23:08:54.962Z,73.75
2022-08-17T23:11:36.646Z,74.08
2022-08-17T23:14:15.841Z,74.48
2022-08-17T23:16:43.262Z,74.24
2022-08-17T23:19:17.717Z,74.05
2022-08-17T23:21:46.008Z,75.20
2022-08-17T23:24:23.837Z,75.13
2022-08-17T23:26:52.586Z,74.67
2022-08-17T23:29:21.771Z,75.17
2022-08-17T23:31:51.383Z,75.36
2022-08-17T23:34:19.733Z,75.50
2022-08-17T23:36:52.452Z,75.17
2022-08-17T23:39:24.664Z,75.63
2022-08-17T23:42:01.297Z,75.51
2022-08-17T23:44:29.143Z,75.89
2022-08-17T23:46:57.851Z,76.39
2022-08-17T23:49:25.664Z,76.54
2022-08-17T23:51:56.858Z,76.44
2022-08-17T23:54:41.692Z,75.96
2022-08-17T23:57:11.841Z,76.09
2022-08-17T23:59:41.012Z,76.49
